Time;durP1;ratioP1;P1;durP2;ratioP2;P2;SDS_P1;SDS_P2;PMS_P1;PMS_P2;Temp;Humidity;BMP_temperature;BMP_pressure;BME280_temperature;BME280_humidity;BME280_pressure;Samples;Min_cycle;Max_cycle;Signal;HPM_P1;HPM_P2
2022/09/12 00:01:04;;;;;;;1.38;1.27;;;;;;;21.53;100.00;99643.13;4991522;28;20745;-78
2022/09/12 00:03:31;;;;;;;1.25;1.17;;;;;;;21.27;100.00;99641.41;4957039;28;20244;-79
2022/09/12 00:05:58;;;;;;;1.10;1.10;;;;;;;21.24;100.00;99646.81;4991734;28;20221;-81
2022/09/12 00:08:26;;;;;;;1.52;1.15;;;;;;;21.43;100.00;99647.03;4991890;28;20221;-80
2022/09/12 00:10:53;;;;;;;1.58;1.00;;;;;;;21.24;100.00;99630.13;4991579;28;20209;-80
2022/09/12 00:13:19;;;;;;;0.95;0.95;;;;;;;21.17;100.00;99655.84;4991606;28;20264;-80
2022/09/12 00:15:46;;;;;;;9.73;1.20;;;;;;;21.26;100.00;99659.91;4991050;28;20686;-80
2022/09/12 00:18:15;;;;;;;2.88;0.90;;;;;;;21.31;100.00;99662.41;4991136;28;20232;-78
2022/09/12 00:20:42;;;;;;;1.25;0.93;;;;;;;21.27;100.00;99646.69;4991022;28;20276;-81
2022/09/12 00:23:09;;;;;;;0.98;0.95;;;;;;;21.22;100.00;99656.53;4991640;28;20268;-80
2022/09/12 00:25:42;;;;;;;1.67;1.35;;;;;;;21.28;100.00;99642.28;4991480;28;20205;-79
2022/09/12 00:28:09;;;;;;;5.70;1.17;;;;;;;21.06;100.00;99654.47;4991510;28;20205;-79
2022/09/12 00:30:40;;;;;;;0.88;0.88;;;;;;;21.18;100.00;99656.72;4991047;28;20197;-79
2022/09/12 00:33:07;;;;;;;1.17;1.08;;;;;;;21.11;100.00;99645.53;4991190;28;20252;-77
2022/09/12 00:35:34;;;;;;;4.65;1.27;;;;;;;21.07;100.00;99659.69;4991142;28;20201;-78
2022/09/12 00:38:01;;;;;;;1.30;1.10;;;;;;;20.82;100.00;99624.53;4990821;28;20312;-79
2022/09/12 00:40:28;;;;;;;8.82;1.30;;;;;;;20.87;100.00;99641.03;4991642;28;20213;-81
2022/09/12 00:42:57;;;;;;;0.93;0.93;;;;;;;21.02;100.00;99666.88;4991295;28;20205;-79
2022/09/12 00:45:28;;;;;;;1.45;1.00;;;;;;;21.01;100.00;99680.13;4991427;28;20252;-79
2022/09/12 00:47:57;;;;;;;0.90;0.90;;;;;;;20.85;100.00;99682.41;4992987;28;20201;-79
2022/09/12 00:50:25;;;;;;;1.00;1.00;;;;;;;20.72;100.00;99665.28;4995097;28;20205;-81
2022/09/12 00:52:55;;;;;;;1.17;1.05;;;;;;;20.83;100.00;99673.72;4995230;28;20201;-78
2022/09/12 00:55:26;;;;;;;3.53;1.02;;;;;;;20.82;100.00;99666.69;4995282;28;20267;-79
2022/09/12 00:57:56;;;;;;;1.40;1.30;;;;;;;20.81;100.00;99648.28;4992801;28;20671;-79
2022/09/12 01:00:27;;;;;;;1.65;1.42;;;;;;;20.69;100.00;99654.84;4960697;28;20281;-81
2022/09/12 01:02:57;;;;;;;1.00;1.00;;;;;;;20.80;100.00;99667.69;4994836;28;20202;-78
2022/09/12 01:05:25;;;;;;;3.95;1.20;;;;;;;20.80;100.00;99665.88;4994519;28;20206;-78
2022/09/12 01:07:53;;;;;;;3.42;1.10;;;;;;;20.77;100.00;99682.66;4994510;28;20221;-80
2022/09/12 01:10:20;;;;;;;1.55;1.15;;;;;;;20.53;100.00;99667.66;4994967;28;20614;-81
2022/09/12 01:12:48;;;;;;;2.65;1.40;;;;;;;20.51;100.00;99661.56;4995026;28;20562;-79
2022/09/12 01:15:15;;;;;;;1.85;1.17;;;;;;;20.31;100.00;99644.66;4994379;28;20273;-78
2022/09/12 01:17:55;;;;;;;4.13;1.02;;;;;;;20.50;100.00;99669.53;4957124;28;20226;-77
2022/09/12 01:20:44;;;;;;;2.50;1.27;;;;;;;20.49;100.00;99660.75;4980464;28;20209;-79
2022/09/12 01:23:49;;;;;;;3.67;1.48;;;;;;;20.45;100.00;99669.66;4993736;28;20662;-81
2022/09/12 01:26:59;;;;;;;1.20;1.10;;;;;;;20.40;100.00;99676.00;4923097;29;20211;-80
2022/09/12 01:29:42;;;;;;;1.30;1.20;;;;;;;20.28;100.00;99667.56;4949928;29;20203;-80
2022/09/12 01:32:21;;;;;;;1.30;1.20;;;;;;;20.31;100.00;99655.19;4953023;29;20248;-79
2022/09/12 01:34:56;;;;;;;2.42;1.38;;;;;;;20.37;100.00;99663.75;4953010;28;20202;-79
2022/09/12 01:37:33;;;;;;;1.42;1.30;;;;;;;20.15;100.00;99671.47;4952739;28;20237;-79
2022/09/12 01:40:12;;;;;;;1.10;1.10;;;;;;;19.93;100.00;99649.31;4953104;29;20213;-78
2022/09/12 01:42:45;;;;;;;4.22;1.23;;;;;;;20.07;100.00;99662.94;4952850;28;20203;-79
2022/09/12 01:45:18;;;;;;;2.88;1.08;;;;;;;20.02;100.00;99656.94;4953106;28;20207;-80
2022/09/12 01:47:51;;;;;;;7.50;1.52;;;;;;;20.21;100.00;99638.81;4952835;28;20618;-80
2022/09/12 01:50:21;;;;;;;2.35;1.20;;;;;;;20.16;100.00;99648.59;4953165;29;20214;-80
2022/09/12 01:52:53;;;;;;;4.18;1.50;;;;;;;20.07;100.00;99647.13;4953170;29;20636;-80
2022/09/12 01:55:25;;;;;;;2.53;1.38;;;;;;;20.04;100.00;99652.50;4952784;29;20648;-80
2022/09/12 01:57:57;;;;;;;6.10;1.40;;;;;;;20.00;100.00;99657.88;4952505;28;21317;-81
2022/09/12 02:00:25;;;;;;;6.40;1.20;;;;;;;19.94;100.00;99645.75;4952283;29;20210;-79
2022/09/12 02:02:59;;;;;;;1.25;1.25;;;;;;;19.95;100.00;99652.75;4954342;28;20210;-80
2022/09/12 02:05:33;;;;;;;1.30;1.30;;;;;;;20.00;100.00;99657.88;4993755;28;20216;-80
2022/09/12 02:08:07;;;;;;;1.35;1.25;;;;;;;19.99;100.00;99658.78;4993885;28;20236;-79
2022/09/12 02:10:38;;;;;;;2.35;1.48;;;;;;;19.84;100.00;99660.09;4993416;28;20217;-79
2022/09/12 02:13:09;;;;;;;4.28;1.50;;;;;;;19.89;100.00;99639.78;4993493;28;20549;-79
2022/09/12 02:15:40;;;;;;;1.60;1.50;;;;;;;19.76;100.00;99646.34;4993637;28;20209;-82
2022/09/12 02:18:12;;;;;;;2.17;1.45;;;;;;;19.88;100.00;99656.47;4992856;28;20625;-81
2022/09/12 02:20:41;;;;;;;2.22;1.23;;;;;;;19.72;100.00;99656.09;4993536;28;20198;-76
2022/09/12 02:23:12;;;;;;;6.68;1.38;;;;;;;19.76;100.00;99659.47;4992169;28;20669;-81
2022/09/12 02:25:44;;;;;;;2.83;1.27;;;;;;;19.64;100.00;99644.91;4992222;28;20209;-76
2022/09/12 02:28:15;;;;;;;2.83;1.40;;;;;;;19.68;100.00;99653.56;4993523;28;20201;-80
2022/09/12 02:30:49;;;;;;;1.58;1.45;;;;;;;19.56;100.00;99628.47;4993481;28;20206;-80
2022/09/12 02:33:25;;;;;;;2.13;1.40;;;;;;;19.52;100.00;99652.28;4977432;28;20190;-78
2022/09/12 02:35:58;;;;;;;1.85;1.50;;;;;;;19.47;100.00;99654.19;4955744;28;20257;-80
2022/09/12 02:38:30;;;;;;;4.95;1.20;;;;;;;19.38;100.00;99623.72;4977943;28;20229;-78
2022/09/12 02:40:56;;;;;;;2.45;1.48;;;;;;;19.49;100.00;99647.97;4993039;28;20685;-79
2022/09/12 02:43:23;;;;;;;4.53;1.40;;;;;;;19.45;100.00;99648.09;4993362;28;20221;-78
2022/09/12 02:45:50;;;;;;;2.67;1.35;;;;;;;19.24;100.00;99629.34;4992919;28;20212;-81
2022/09/12 02:48:23;;;;;;;1.63;1.20;;;;;;;19.18;100.00;99634.78;4992895;28;20209;-79
2022/09/12 02:50:49;;;;;;;1.88;1.30;;;;;;;19.24;100.00;99663.53;4992831;28;20606;-79
2022/09/12 02:53:18;;;;;;;1.85;1.10;;;;;;;19.26;100.00;99661.69;4993172;28;20216;-79
2022/09/12 02:55:44;;;;;;;2.03;1.42;;;;;;;19.40;100.00;99657.84;4992493;28;20208;-78
2022/09/12 02:58:15;;;;;;;1.10;1.10;;;;;;;19.13;100.00;99613.00;4992699;28;20276;-76
2022/09/12 03:00:48;;;;;;;3.13;1.40;;;;;;;19.37;100.00;99652.69;4992844;28;20193;-79
2022/09/12 03:03:38;;;;;;;4.22;1.30;;;;;;;19.38;100.00;99659.66;4992575;28;20696;-80
2022/09/12 03:06:17;;;;;;;2.10;1.45;;;;;;;19.05;100.00;99629.91;4979901;28;20248;-79
2022/09/12 03:08:55;;;;;;;2.70;1.20;;;;;;;19.19;100.00;99660.13;4992855;28;20800;-80
2022/09/12 03:11:37;;;;;;;6.43;1.58;;;;;;;19.33;100.00;99654.53;4991396;28;20212;-79
2022/09/12 03:14:17;;;;;;;1.73;1.40;;;;;;;19.43;100.00;99669.19;4992484;28;20689;-79
2022/09/12 03:16:53;;;;;;;2.28;1.30;;;;;;;19.43;100.00;99676.22;4992514;28;20665;-80
2022/09/12 03:19:27;;;;;;;1.77;1.30;;;;;;;19.42;100.00;99683.22;4974089;28;20265;-78
2022/09/12 03:22:03;;;;;;;1.35;1.35;;;;;;;19.35;100.00;99675.50;4992757;28;20205;-79
2022/09/12 03:24:33;;;;;;;5.50;1.17;;;;;;;19.37;100.00;99682.44;4992429;28;20593;-80
2022/09/12 03:27:08;;;;;;;2.00;1.42;;;;;;;19.24;100.00;99689.81;4992240;28;20205;-79
2022/09/12 03:29:36;;;;;;;1.17;1.17;;;;;;;19.22;100.00;99683.75;4991604;28;20722;-78
2022/09/12 03:32:03;;;;;;;2.05;1.15;;;;;;;19.05;100.00;99682.47;4991729;28;20189;-79
2022/09/12 03:34:32;;;;;;;1.15;1.13;;;;;;;19.17;100.00;99682.13;4991956;28;20193;-77
2022/09/12 03:36:59;;;;;;;1.80;1.10;;;;;;;19.06;100.00;99690.28;4989546;28;20201;-81
2022/09/12 03:39:26;;;;;;;1.42;1.23;;;;;;;18.90;100.00;99648.69;4992164;28;20221;-77
2022/09/12 03:41:54;;;;;;;2.45;1.40;;;;;;;19.12;100.00;99689.28;4992156;28;20293;-77
2022/09/12 03:44:21;;;;;;;1.30;1.30;;;;;;;19.07;100.00;99689.41;4991603;28;20213;-79
2022/09/12 03:46:48;;;;;;;2.45;1.35;;;;;;;19.13;100.00;99685.72;4991928;28;20209;-80
2022/09/12 03:49:15;;;;;;;3.72;1.30;;;;;;;19.18;100.00;99694.38;4992136;28;20330;-79
2022/09/12 03:51:43;;;;;;;1.92;1.50;;;;;;;19.25;100.00;99691.53;4991738;28;20198;-78
2022/09/12 03:54:11;;;;;;;1.80;1.30;;;;;;;18.88;100.00;99655.72;4992050;28;20205;-79
2022/09/12 03:56:39;;;;;;;3.33;1.35;;;;;;;18.99;100.00;99693.97;4991956;28;20213;-79
2022/09/12 03:59:06;;;;;;;3.30;1.20;;;;;;;18.91;100.00;99653.88;4991745;28;20256;-77
2022/09/12 04:01:33;;;;;;;7.45;1.45;;;;;;;18.99;100.00;99693.97;4991375;28;20198;-81
2022/09/12 04:04:00;;;;;;;2.90;1.30;;;;;;;18.89;100.00;99679.34;4992169;28;20197;-82
2022/09/12 04:06:27;;;;;;;1.88;1.40;;;;;;;19.35;100.00;99701.81;4992239;28;20190;-84
2022/09/12 04:08:55;;;;;;;1.25;1.15;;;;;;;19.63;100.00;99690.53;4991565;28;20256;-78
2022/09/12 04:11:23;;;;;;;2.72;1.50;;;;;;;19.68;100.00;99700.94;4954031;28;20208;-81
2022/09/12 04:13:50;;;;;;;1.23;1.23;;;;;;;20.04;100.00;99693.75;4985821;28;20641;-82
2022/09/12 04:16:17;;;;;;;3.28;1.58;;;;;;;20.12;100.00;99671.53;4991813;28;20213;-84
2022/09/12 04:18:45;;;;;;;1.90;1.67;;;;;;;19.89;100.00;99699.44;4957363;28;20233;-82
2022/09/12 04:21:14;;;;;;;8.13;1.75;;;;;;;19.39;100.00;99687.66;4991524;28;20208;-79
2022/09/12 04:23:41;;;;;;;3.40;2.10;;;;;;;19.37;100.00;99700.84;4990908;28;20832;-82
2022/09/12 04:26:10;;;;;;;5.07;4.15;;;;;;;19.18;100.00;99684.72;4991654;28;20204;-84
2022/09/12 04:28:38;;;;;;;6.07;3.38;;;;;;;19.46;100.00;99715.56;4990936;28;20205;-82
2022/09/12 04:31:07;;;;;;;3.88;3.53;;;;;;;19.33;100.00;99718.47;4990828;28;20201;-82
2022/09/12 04:33:35;;;;;;;2.45;2.25;;;;;;;19.21;100.00;99705.66;4991111;28;20201;-83
2022/09/12 04:36:06;;;;;;;2.03;1.90;;;;;;;19.71;100.00;99721.88;4989977;28;20213;-82
2022/09/12 04:38:33;;;;;;;1.70;1.60;;;;;;;20.02;100.00;99722.72;4938737;28;20241;-82
2022/09/12 04:41:00;;;;;;;2.15;1.48;;;;;;;20.26;100.00;99727.25;4980201;28;20965;-82
2022/09/12 04:43:28;;;;;;;1.20;1.17;;;;;;;20.77;100.00;99724.81;4991254;28;20296;-81
2022/09/12 04:45:55;;;;;;;1.25;1.15;;;;;;;20.99;100.00;99726.75;4990528;28;20197;-78
2022/09/12 04:48:22;;;;;;;1.65;1.38;;;;;;;21.14;99.24;99732.44;4989994;28;20206;-82
2022/09/12 04:50:49;;;;;;;1.15;1.15;;;;;;;21.07;100.00;99737.91;4990767;28;20220;-82
2022/09/12 04:53:16;;;;;;;3.47;1.27;;;;;;;21.06;98.85;99730.91;4990461;28;20197;-83
2022/09/12 04:55:43;;;;;;;1.27;1.15;;;;;;;21.21;99.81;99736.59;4990545;28;20582;-82
2022/09/12 04:58:09;;;;;;;4.50;1.35;;;;;;;20.96;99.78;99724.22;4990935;28;20636;-81
2022/09/12 05:00:37;;;;;;;1.33;1.23;;;;;;;21.19;99.12;99746.28;4989309;28;20763;-80
2022/09/12 05:03:04;;;;;;;4.30;1.50;;;;;;;21.17;99.49;99748.13;4988220;28;20198;-80
2022/09/12 05:05:31;;;;;;;1.48;1.20;;;;;;;21.08;99.57;99752.84;4990223;28;20209;-74
2022/09/12 05:07:58;;;;;;;2.65;1.25;;;;;;;21.15;99.36;99747.31;4991094;28;20303;-82
2022/09/12 05:10:25;;;;;;;9.90;2.15;;;;;;;20.98;100.00;99746.13;4991114;28;20204;-79
2022/09/12 05:12:52;;;;;;;6.07;1.50;;;;;;;20.40;100.00;99747.09;4973263;28;20260;-83
2022/09/12 05:15:19;;;;;;;1.30;1.30;;;;;;;20.34;100.00;99748.13;4991761;28;20248;-85
2022/09/12 05:17:48;;;;;;;4.22;1.30;;;;;;;20.30;100.00;99754.41;4991317;28;20221;-86
2022/09/12 05:20:16;;;;;;;2.67;1.80;;;;;;;20.05;100.00;99743.69;4991250;28;20268;-83
2022/09/12 05:22:43;;;;;;;1.30;1.20;;;;;;;20.37;100.00;99749.84;4991590;28;20252;-82
2022/09/12 05:25:10;;;;;;;26.25;3.40;;;;;;;20.36;100.00;99758.63;4989134;28;20221;-84
2022/09/12 05:27:36;;;;;;;1.58;1.45;;;;;;;20.30;100.00;99750.94;4957718;28;20244;-82
2022/09/12 05:30:05;;;;;;;4.13;1.60;;;;;;;19.94;100.00;99710.72;4991026;28;20297;-82
2022/09/12 05:32:32;;;;;;;3.15;0.98;;;;;;;20.03;100.00;99753.41;4990608;28;20206;-83
2022/09/12 05:35:00;;;;;;;3.92;1.55;;;;;;;20.34;100.00;99753.41;4993363;28;20691;-82
2022/09/12 05:37:27;;;;;;;1.40;1.38;;;;;;;20.16;100.00;99762.66;4994229;28;20943;-82
2022/09/12 05:39:54;;;;;;;1.35;1.25;;;;;;;20.15;100.00;99755.69;4994312;28;20669;-83
2022/09/12 05:42:22;;;;;;;1.70;1.60;;;;;;;20.26;100.00;99764.13;4994366;28;20205;-80
2022/09/12 05:44:49;;;;;;;1.95;1.45;;;;;;;20.34;100.00;99745.50;4994402;28;20614;-77
2022/09/12 05:47:17;;;;;;;1.50;1.40;;;;;;;20.46;100.00;99760.06;4994174;28;20218;-79
2022/09/12 05:49:46;;;;;;;10.25;2.45;;;;;;;20.43;100.00;99762.81;4994223;28;20206;-78
2022/09/12 05:52:15;;;;;;;1.63;1.10;;;;;;;20.25;100.00;99725.56;4994130;28;20212;-78
2022/09/12 05:54:41;;;;;;;1.30;1.30;;;;;;;20.68;100.00;99762.00;4993987;28;20233;-79
2022/09/12 05:57:08;;;;;;;1.67;1.30;;;;;;;20.99;100.00;99751.34;4994258;28;20236;-78
2022/09/12 05:59:35;;;;;;;6.25;1.10;;;;;;;21.09;100.00;99746.63;4991425;28;20233;-80
2022/09/12 06:02:02;;;;;;;1.15;1.15;;;;;;;20.97;100.00;99758.47;4975683;28;20260;-78
2022/09/12 06:04:29;;;;;;;2.63;1.30;;;;;;;21.16;100.00;99764.88;4993873;28;20213;-75
2022/09/12 06:06:58;;;;;;;1.30;1.30;;;;;;;21.32;100.00;99723.03;4959566;28;20209;-76
2022/09/12 06:09:26;;;;;;;1.38;1.38;;;;;;;21.15;100.00;99757.84;4996631;28;20233;-77
2022/09/12 06:11:54;;;;;;;2.80;1.00;;;;;;;21.07;100.00;99762.50;4998958;28;20201;-79
2022/09/12 06:14:21;;;;;;;3.58;1.23;;;;;;;21.17;100.00;99756.06;4998093;28;20266;-78
2022/09/12 06:16:49;;;;;;;2.58;1.20;;;;;;;21.25;100.00;99754.03;5004226;28;20201;-78
2022/09/12 06:19:17;;;;;;;2.42;1.25;;;;;;;21.52;100.00;99756.63;5004595;28;20229;-78
2022/09/12 06:21:46;;;;;;;9.38;1.60;;;;;;;21.32;97.91;99738.84;4994412;28;20217;-77
2022/09/12 06:24:13;;;;;;;1.02;1.02;;;;;;;21.42;98.05;99707.72;4993775;28;20210;-78
2022/09/12 06:26:42;;;;;;;1.33;1.20;;;;;;;21.74;97.61;99739.97;4993087;28;20209;-79
2022/09/12 06:29:12;;;;;;;3.65;1.58;;;;;;;21.94;94.47;99754.28;4993481;28;20657;-81
2022/09/12 06:31:40;;;;;;;3.30;1.58;;;;;;;21.91;94.22;99755.22;4993298;28;20205;-74
2022/09/12 06:34:10;;;;;;;1.17;1.08;;;;;;;21.70;95.80;99761.25;4993260;28;20284;-75
2022/09/12 06:36:39;;;;;;;2.25;1.10;;;;;;;21.84;93.34;99758.97;4993533;28;20203;-77
2022/09/12 06:39:07;;;;;;;1.10;1.00;;;;;;;21.81;93.03;99753.81;4993140;28;20252;-78
2022/09/12 06:41:34;;;;;;;1.65;1.23;;;;;;;21.81;93.91;99756.47;4959330;28;20213;-77
2022/09/12 06:44:03;;;;;;;1.50;1.40;;;;;;;21.82;92.59;99739.72;4993112;28;20201;-77
2022/09/12 06:46:30;;;;;;;1.30;1.30;;;;;;;21.93;92.78;99747.28;4993003;28;20689;-76
2022/09/12 06:48:58;;;;;;;1.40;1.30;;;;;;;21.96;93.54;99740.09;4993229;28;20292;-76
2022/09/12 06:51:25;;;;;;;1.65;1.40;;;;;;;21.96;92.74;99745.38;4993280;28;20205;-76
2022/09/12 06:53:55;;;;;;;4.20;1.15;;;;;;;21.90;93.08;99716.56;4994333;28;20213;-78
2022/09/12 06:56:24;;;;;;;3.03;1.30;;;;;;;22.09;91.84;99743.13;5005549;28;20697;-78
2022/09/12 06:58:52;;;;;;;2.28;1.10;;;;;;;22.20;91.87;99751.53;4992795;28;20214;-74
2022/09/12 07:01:22;;;;;;;2.40;1.10;;;;;;;22.27;90.47;99746.88;4992821;28;20879;-77
2022/09/12 07:03:50;;;;;;;1.30;1.30;;;;;;;22.22;90.95;99755.81;4992863;28;20202;-77
2022/09/12 07:06:18;;;;;;;1.58;1.10;;;;;;;22.26;90.50;99746.00;4974385;28;20206;-78
2022/09/12 07:08:46;;;;;;;1.23;1.20;;;;;;;22.19;89.27;99763.84;4992538;28;20244;-77
2022/09/12 07:11:15;;;;;;;1.30;1.30;;;;;;;22.36;89.49;99757.97;4992666;28;20216;-77
2022/09/12 07:13:44;;;;;;;0.98;0.98;;;;;;;22.36;88.78;99767.66;4992408;28;20224;-77
2022/09/12 07:16:11;;;;;;;8.68;1.63;;;;;;;22.18;89.59;99767.44;4992712;28;20682;-76
2022/09/12 07:18:40;;;;;;;1.80;1.27;;;;;;;22.12;89.52;99733.31;4992305;28;20288;-76
2022/09/12 07:21:10;;;;;;;1.10;1.10;;;;;;;22.27;89.13;99757.44;4992304;28;20682;-77
2022/09/12 07:23:37;;;;;;;2.85;1.15;;;;;;;22.32;88.46;99761.63;4992199;28;20205;-77
2022/09/12 07:26:04;;;;;;;2.05;1.17;;;;;;;22.35;88.35;99765.94;4992312;28;20272;-77
2022/09/12 07:28:33;;;;;;;1.75;1.27;;;;;;;22.61;87.60;99760.50;4992238;28;20862;-78
2022/09/12 07:31:06;;;;;;;3.80;1.38;;;;;;;22.66;87.75;99758.53;4992076;28;20216;-77
2022/09/12 07:33:32;;;;;;;1.23;1.23;;;;;;;22.56;87.00;99757.19;4992360;28;20250;-78
2022/09/12 07:36:03;;;;;;;1.35;1.33;;;;;;;22.76;86.68;99757.28;4992173;28;20301;-78
2022/09/12 07:38:30;;;;;;;1.48;1.35;;;;;;;22.89;86.29;99763.81;4992205;28;20241;-80
2022/09/12 07:40:57;;;;;;;1.15;1.10;;;;;;;22.81;84.88;99771.19;4991986;28;20659;-81
2022/09/12 07:43:24;;;;;;;2.60;1.27;;;;;;;22.65;84.81;99762.13;4957812;28;20542;-77
2022/09/12 07:45:55;;;;;;;1.83;1.30;;;;;;;22.99;83.41;99770.44;4992078;28;20213;-80
2022/09/12 07:48:22;;;;;;;7.35;1.63;;;;;;;23.02;82.44;99759.75;4991887;28;20201;-80
2022/09/12 07:50:57;;;;;;;1.02;1.02;;;;;;;23.16;81.16;99769.75;4991234;28;20202;-79
2022/09/12 07:53:25;;;;;;;4.47;1.27;;;;;;;23.26;81.07;99762.31;4991625;28;20201;-80
2022/09/12 07:55:56;;;;;;;1.85;1.35;;;;;;;23.31;78.20;99761.19;4991638;28;20213;-81
2022/09/12 07:58:23;;;;;;;2.05;1.23;;;;;;;23.11;77.59;99763.81;4991564;28;20582;-80
2022/09/12 08:00:50;;;;;;;4.45;1.33;;;;;;;23.41;77.93;99759.00;4991664;28;20312;-80
2022/09/12 08:03:17;;;;;;;2.45;1.48;;;;;;;23.54;77.00;99762.91;4957607;28;20215;-77
2022/09/12 08:05:44;;;;;;;1.20;1.20;;;;;;;23.35;76.77;99762.78;4989739;28;20667;-78
2022/09/12 08:08:11;;;;;;;2.70;1.48;;;;;;;23.64;76.29;99759.78;4991912;28;20675;-78
2022/09/12 08:10:39;;;;;;;1.65;1.17;;;;;;;23.53;76.77;99742.63;4973450;28;20686;-78
2022/09/12 08:13:06;;;;;;;4.30;1.20;;;;;;;23.64;76.99;99758.94;4990749;28;20206;-78
2022/09/12 08:15:35;;;;;;;1.50;1.40;;;;;;;23.86;76.09;99754.41;4991500;28;20693;-76
2022/09/12 08:18:01;;;;;;;2.78;1.20;;;;;;;23.97;74.36;99746.00;4991483;28;20209;-81
2022/09/12 08:20:29;;;;;;;1.80;1.02;;;;;;;24.03;72.43;99748.34;4991603;28;20304;-82
2022/09/12 08:22:56;;;;;;;1.60;1.50;;;;;;;24.12;72.42;99738.19;4991529;28;20205;-82
2022/09/12 08:25:23;;;;;;;11.55;1.10;;;;;;;23.91;72.80;99720.63;4991557;28;20233;-84
2022/09/12 08:27:51;;;;;;;1.27;1.17;;;;;;;24.08;72.45;99746.34;4991382;28;20244;-83
2022/09/12 08:30:18;;;;;;;1.35;1.25;;;;;;;23.87;71.02;99736.72;4991394;28;20205;-81
2022/09/12 08:32:44;;;;;;;3.10;1.30;;;;;;;23.90;71.44;99755.13;4991156;28;20221;-81
2022/09/12 08:35:11;;;;;;;4.50;1.23;;;;;;;24.06;71.39;99735.81;4991539;28;20220;-78
2022/09/12 08:37:38;;;;;;;2.40;1.17;;;;;;;24.08;69.82;99733.94;4972934;28;20206;-79
2022/09/12 08:40:07;;;;;;;1.52;1.42;;;;;;;24.03;69.86;99711.25;4991369;28;20237;-78
2022/09/12 08:42:49;;;;;;;1.13;1.13;;;;;;;24.17;70.02;99716.81;4991484;28;20213;-81
2022/09/12 08:45:23;;;;;;;1.10;1.10;;;;;;;24.17;68.45;99728.28;4943035;28;20212;-81
2022/09/12 08:47:50;;;;;;;1.10;1.10;;;;;;;24.19;68.06;99720.25;4991470;28;20207;-80
2022/09/12 08:50:20;;;;;;;2.90;1.08;;;;;;;24.07;70.08;99711.06;4991208;28;20648;-82
2022/09/12 08:52:57;;;;;;;1.52;1.40;;;;;;;24.37;69.45;99715.88;4988986;28;20197;-81
2022/09/12 08:55:35;;;;;;;1.30;1.23;;;;;;;24.28;68.97;99724.28;4991391;28;20205;-79
2022/09/12 08:58:11;;;;;;;1.20;1.20;;;;;;;24.41;67.43;99720.09;4991227;28;20201;-79
2022/09/12 09:00:48;;;;;;;1.25;1.05;;;;;;;24.39;65.38;99716.69;4991129;28;20220;-77
2022/09/12 09:03:56;;;;;;;1.40;1.30;;;;;;;24.52;64.77;99709.84;4958584;28;20558;-82
2022/09/12 09:06:48;;;;;;;2.58;1.38;;;;;;;24.63;64.64;99699.59;4991091;28;20288;-80
2022/09/12 09:09:24;;;;;;;1.23;1.23;;;;;;;24.78;63.82;99688.25;4992764;28;20229;-79
2022/09/12 09:12:06;;;;;;;5.88;1.13;;;;;;;24.86;63.48;99699.38;4994770;28;20201;-78
2022/09/12 09:14:49;;;;;;;5.50;1.17;;;;;;;25.01;62.18;99690.63;4994712;28;20280;-78
2022/09/12 09:17:25;;;;;;;1.00;1.00;;;;;;;25.11;59.60;99699.84;4994858;28;20217;-77
2022/09/12 09:19:59;;;;;;;1.35;1.20;;;;;;;25.12;59.06;99683.00;5008289;28;20323;-77
2022/09/12 09:22:38;;;;;;;1.17;0.90;;;;;;;25.07;57.31;99700.97;4994807;28;20219;-81
2022/09/12 09:25:11;;;;;;;2.03;1.17;;;;;;;25.12;56.56;99698.06;4994417;28;20653;-80
2022/09/12 09:27:43;;;;;;;1.38;1.10;;;;;;;24.90;55.89;99686.81;4994596;28;20213;-78
2022/09/12 09:30:15;;;;;;;2.38;1.27;;;;;;;25.04;56.23;99701.09;4994290;28;20208;-81
2022/09/12 09:32:47;;;;;;;1.10;1.10;;;;;;;25.02;56.56;99681.75;4994431;28;20206;-79
2022/09/12 09:35:17;;;;;;;1.42;1.33;;;;;;;25.16;57.90;99695.16;4975909;28;20229;-80
2022/09/12 09:37:59;;;;;;;2.33;1.73;;;;;;;25.21;58.40;99676.38;4994567;28;20681;-80
2022/09/12 09:40:37;;;;;;;1.50;1.50;;;;;;;25.14;57.19;99680.28;4994019;28;20730;-80
2022/09/12 09:43:13;;;;;;;2.90;1.20;;;;;;;25.29;56.66;99668.00;4994213;28;20213;-78
2022/09/12 09:45:41;;;;;;;2.80;1.30;;;;;;;25.20;55.78;99657.84;4994120;28;20201;-73
2022/09/12 09:48:16;;;;;;;3.83;1.70;;;;;;;25.47;55.71;99645.81;4994390;28;20216;-75
2022/09/12 09:50:45;;;;;;;1.45;1.40;;;;;;;25.64;56.16;99685.66;4997200;28;20204;-77
2022/09/12 09:53:24;;;;;;;2.05;1.20;;;;;;;25.98;54.48;99696.16;5004458;28;20205;-82
2022/09/12 09:55:53;;;;;;;4.53;1.38;;;;;;;26.20;52.92;99681.75;4994039;28;20560;-83
2022/09/12 09:58:31;;;;;;;6.55;1.40;;;;;;;25.89;52.22;99691.38;4994135;28;20198;-75
2022/09/12 10:01:01;;;;;;;1.50;1.40;;;;;;;25.79;53.09;99678.66;4993742;28;20217;-76
2022/09/12 10:03:37;;;;;;;1.48;1.38;;;;;;;25.85;53.51;99673.88;4975429;28;20209;-72
2022/09/12 10:06:08;;;;;;;2.10;1.48;;;;;;;25.83;54.13;99670.41;4993442;28;20646;-81
2022/09/12 10:08:38;;;;;;;1.95;0.90;;;;;;;25.82;49.74;99679.34;4993806;28;20292;-74
2022/09/12 10:11:07;;;;;;;1.30;1.30;;;;;;;26.16;49.70;99678.34;4993935;28;20205;-78
2022/09/12 10:13:41;;;;;;;1.30;1.30;;;;;;;26.43;50.51;99691.97;4993844;28;20214;-75
2022/09/12 10:16:20;;;;;;;1.60;1.50;;;;;;;26.79;50.75;99689.03;4993639;28;20209;-75
2022/09/12 10:18:51;;;;;;;2.17;1.35;;;;;;;26.84;50.24;99689.63;4980245;28;20247;-75
2022/09/12 10:21:28;;;;;;;7.00;1.60;;;;;;;26.69;50.38;99671.84;4993342;28;20229;-75
2022/09/12 10:24:16;;;;;;;2.00;1.85;;;;;;;26.41;50.87;99681.41;4993573;28;20197;-76
2022/09/12 10:26:45;;;;;;;1.80;1.60;;;;;;;26.19;51.26;99678.22;4993606;28;20197;-76
2022/09/12 10:29:17;;;;;;;4.75;1.65;;;;;;;26.37;51.75;99679.84;4993556;28;20645;-75
2022/09/12 10:31:48;;;;;;;5.43;1.70;;;;;;;26.56;51.54;99677.03;4993487;28;20220;-76
2022/09/12 10:34:29;;;;;;;2.13;1.40;;;;;;;26.61;50.89;99685.63;4993365;28;20654;-76
2022/09/12 10:37:02;;;;;;;1.65;1.55;;;;;;;26.65;49.51;99660.53;4993402;28;20263;-78
2022/09/12 10:39:30;;;;;;;1.40;1.40;;;;;;;26.47;49.67;99669.59;4993253;28;20209;-80
2022/09/12 10:41:57;;;;;;;1.52;1.40;;;;;;;26.27;51.28;99673.34;4993249;28;20240;-78
2022/09/12 10:44:29;;;;;;;1.33;1.33;;;;;;;26.67;50.40;99669.28;4992669;28;20688;-78
2022/09/12 10:46:57;;;;;;;1.38;1.27;;;;;;;26.47;51.36;99661.59;4974336;28;20701;-79
2022/09/12 10:49:30;;;;;;;1.52;1.50;;;;;;;26.65;52.22;99670.34;4992476;28;20203;-78
2022/09/12 10:52:16;;;;;;;1.77;1.52;;;;;;;26.56;52.37;99674.38;4992708;28;20846;-81
2022/09/12 10:54:43;;;;;;;6.90;1.85;;;;;;;26.13;52.92;99668.75;4993276;28;20297;-77
2022/09/12 10:57:38;;;;;;;4.55;1.67;;;;;;;26.33;52.60;99665.00;4993158;28;20205;-78
2022/09/12 11:00:13;;;;;;;1.75;1.65;;;;;;;26.49;53.75;99671.19;4913765;29;20335;-77
2022/09/12 11:03:05;;;;;;;4.15;1.50;;;;;;;26.44;53.11;99667.94;4913629;29;20211;-75
2022/09/12 11:05:51;;;;;;;1.63;1.52;;;;;;;26.35;53.02;99667.59;4913678;29;20211;-77
2022/09/12 11:08:43;;;;;;;1.75;1.70;;;;;;;26.26;53.58;99673.41;4912769;29;20232;-77
2022/09/12 11:11:22;;;;;;;2.35;1.88;;;;;;;25.86;53.28;99595.91;4856514;29;20217;-77
2022/09/12 11:13:59;;;;;;;1.60;1.50;;;;;;;26.10;52.95;99641.50;4857405;29;20291;-77
2022/09/12 11:16:40;;;;;;;2.50;1.60;;;;;;;26.38;53.07;99662.97;4857177;29;21000;-76
2022/09/12 11:19:30;;;;;;;6.80;1.90;;;;;;;26.36;52.82;99666.66;4857402;29;20215;-78
2022/09/12 11:22:17;;;;;;;3.67;1.50;;;;;;;26.37;52.29;99657.72;4857152;29;20242;-78
2022/09/12 11:25:04;;;;;;;7.47;1.63;;;;;;;26.02;52.74;99657.88;4857322;29;20225;-77
2022/09/12 11:27:47;;;;;;;2.38;1.58;;;;;;;26.08;52.88;99652.19;4857233;29;20214;-76
2022/09/12 11:30:16;;;;;;;1.23;1.23;;;;;;;25.76;53.50;99660.22;4857066;29;20678;-77
2022/09/12 11:33:05;;;;;;;5.32;1.50;;;;;;;25.99;52.40;99655.38;4856278;29;20210;-76
2022/09/12 11:35:33;;;;;;;3.30;1.27;;;;;;;26.13;51.68;99652.81;4857162;29;20286;-77
2022/09/12 11:38:30;;;;;;;3.03;1.33;;;;;;;26.15;51.42;99629.66;4936402;29;20245;-79
2022/09/12 11:41:02;;;;;;;1.02;1.02;;;;;;;26.76;50.40;99647.47;4912841;29;20235;-79
2022/09/12 11:43:38;;;;;;;2.00;1.33;;;;;;;26.80;49.68;99648.13;4912901;29;20216;-78
2022/09/12 11:46:14;;;;;;;4.65;1.25;;;;;;;26.70;49.39;99647.81;4912912;29;20211;-78
2022/09/12 11:48:49;;;;;;;1.13;1.05;;;;;;;26.32;50.48;99630.56;4921454;29;20674;-80